Terminal Aerodrome Forecast
Issued by NWS Twin Cities, MN

Home | Current Version | Previous Version | Text Only | Print | Product List | Glossary On
Versions: 1 2 3 4 5 6 7 8 9 10 11 12 13
000
FTUS43 KMPX 052321
TAFEAU
TAF
KEAU 052321Z 0600/0624 13012G18KT P6SM SCT030 OVC060
     FM060200 12009KT P6SM VCSH OVC025
     FM060700 11009KT P6SM VCSH OVC015
     FM061200 13011KT 6SM -SHRA BR SCT015 OVC025
     FM061800 14012G18KT P6SM SCT025 OVC050=

USA.gov is the U.S. government's official web portal to all federal, state and local government web resources and services.